Time;durP1;ratioP1;P1;durP2;ratioP2;P2;SDS_P1;SDS_P2;PMS_P1;PMS_P2;Temp;Humidity;BMP_temperature;BMP_pressure;BME280_temperature;BME280_humidity;BME280_pressure;Samples;Min_cycle;Max_cycle;Signal;HPM_P1;HPM_P2
2022/03/12 00:01:05;;;;;;;11.00;5.43;;;;;;;3.59;38.76;100273.22;5036195;28;20108;-78
2022/03/12 00:03:32;;;;;;;11.15;5.22;;;;;;;3.55;38.90;100268.84;5038653;28;20017;-78
2022/03/12 00:06:00;;;;;;;9.27;4.82;;;;;;;3.57;38.56;100272.34;5035447;28;20025;-77
2022/03/12 00:08:51;;;;;;;9.55;4.70;;;;;;;3.54;38.81;100269.72;5037561;28;20037;-78
2022/03/12 00:11:19;;;;;;;9.25;5.00;;;;;;;3.50;38.87;100278.53;5035238;28;20060;-77
2022/03/12 00:13:46;;;;;;;8.77;4.82;;;;;;;3.39;39.15;100286.44;5017401;28;20014;-77
2022/03/12 00:16:14;;;;;;;8.20;4.50;;;;;;;3.38;38.53;100288.19;5035188;28;20021;-77
2022/03/12 00:18:42;;;;;;;8.18;4.75;;;;;;;3.43;38.12;100278.53;5020071;28;20080;-78
2022/03/12 00:21:12;;;;;;;8.18;4.53;;;;;;;3.40;38.15;100278.50;5036299;28;20044;-78
2022/03/12 00:23:38;;;;;;;11.68;4.97;;;;;;;3.35;38.92;100273.25;5034466;28;20142;-77
2022/03/12 00:26:03;;;;;;;9.23;4.20;;;;;;;3.35;38.33;100278.53;5033675;28;20060;-77
2022/03/12 00:28:29;;;;;;;9.65;4.40;;;;;;;3.37;37.97;100273.25;5016532;28;20434;-78
2022/03/12 00:30:54;;;;;;;11.05;4.72;;;;;;;3.32;38.79;100269.75;5034536;28;20036;-78
2022/03/12 00:33:21;;;;;;;9.05;4.72;;;;;;;3.27;38.53;100266.22;5034934;28;20029;-78
2022/03/12 00:35:51;;;;;;;10.27;4.63;;;;;;;3.24;38.60;100262.72;5034634;28;20106;-78
2022/03/12 00:38:19;;;;;;;8.88;4.75;;;;;;;3.22;38.14;100256.53;5037827;28;20107;-77
2022/03/12 00:40:44;;;;;;;10.13;4.70;;;;;;;3.23;38.68;100254.78;5019406;28;20433;-78
2022/03/12 00:43:10;;;;;;;8.00;4.40;;;;;;;3.20;39.26;100253.00;5036333;28;20014;-78
2022/03/12 00:45:36;;;;;;;8.18;4.75;;;;;;;3.13;38.83;100260.06;5038565;28;20025;-78
2022/03/12 00:48:02;;;;;;;9.30;4.60;;;;;;;3.12;38.23;100263.56;5038495;28;20022;-78
2022/03/12 00:50:27;;;;;;;8.23;4.43;;;;;;;3.06;38.36;100267.97;5036575;28;20032;-78
2022/03/12 00:52:53;;;;;;;9.68;4.65;;;;;;;2.98;39.73;100260.06;5036925;28;20041;-78
2022/03/12 00:55:18;;;;;;;7.55;4.43;;;;;;;2.98;39.36;100266.22;5036859;28;20021;-78
2022/03/12 00:57:43;;;;;;;7.35;4.68;;;;;;;2.94;38.80;100253.88;5036921;28;20025;-78
2022/03/12 01:00:14;;;;;;;8.75;4.65;;;;;;;2.92;39.60;100249.47;5037145;28;20525;-78
2022/03/12 01:02:39;;;;;;;8.18;4.00;;;;;;;2.86;39.49;100251.22;5022680;28;20462;-78
2022/03/12 01:05:05;;;;;;;9.45;4.50;;;;;;;2.78;40.45;100248.59;5025267;28;20029;-79
2022/03/12 01:07:30;;;;;;;7.32;4.40;;;;;;;2.72;40.09;100240.69;5023826;28;20088;-78
2022/03/12 01:09:56;;;;;;;8.77;4.15;;;;;;;2.65;40.31;100246.81;5022163;28;20025;-79
2022/03/12 01:12:21;;;;;;;12.13;4.82;;;;;;;2.64;40.22;100242.41;5036847;28;20028;-78
2022/03/12 01:14:46;;;;;;;9.68;4.57;;;;;;;2.64;40.15;100245.06;5038016;28;20029;-79
2022/03/12 01:17:11;;;;;;;9.75;4.65;;;;;;;2.61;40.40;100245.91;5039849;28;20036;-79
2022/03/12 01:19:38;;;;;;;10.00;4.85;;;;;;;2.56;40.03;100237.13;5039460;28;20056;-78
2022/03/12 01:22:05;;;;;;;6.03;3.72;;;;;;;2.56;40.03;100247.66;5039691;28;20028;-77
2022/03/12 01:24:30;;;;;;;9.65;4.65;;;;;;;2.56;40.29;100251.19;5039649;28;20033;-78
2022/03/12 01:26:57;;;;;;;6.53;3.88;;;;;;;2.56;39.59;100252.94;5022185;28;20075;-79
2022/03/12 01:29:23;;;;;;;8.60;4.18;;;;;;;2.56;39.19;100261.72;5037988;28;20026;-78
2022/03/12 01:31:48;;;;;;;6.35;4.05;;;;;;;2.54;39.76;100259.97;5022091;28;20025;-79
2022/03/12 01:34:14;;;;;;;6.88;4.18;;;;;;;2.55;38.97;100257.31;5039209;28;20029;-79
2022/03/12 01:36:39;;;;;;;8.05;4.00;;;;;;;2.61;39.07;100261.75;5039546;28;20029;-78
2022/03/12 01:39:04;;;;;;;8.63;4.22;;;;;;;2.60;38.96;100270.53;5038684;28;20026;-78
2022/03/12 01:41:32;;;;;;;7.00;3.88;;;;;;;2.64;38.47;100269.66;5043029;28;20029;-78
2022/03/12 01:43:59;;;;;;;9.23;4.10;;;;;;;2.66;38.03;100269.66;5026018;28;20029;-79
2022/03/12 01:46:29;;;;;;;7.47;4.28;;;;;;;2.60;38.54;100267.91;5024852;28;20582;-79
2022/03/12 01:48:59;;;;;;;7.47;4.20;;;;;;;2.65;38.15;100271.44;5024450;28;20025;-77
2022/03/12 01:51:29;;;;;;;9.43;4.00;;;;;;;2.59;38.60;100263.50;5041786;28;20025;-78
2022/03/12 01:53:54;;;;;;;8.80;4.32;;;;;;;2.54;38.91;100265.25;5038173;28;20094;-80
2022/03/12 01:56:20;;;;;;;8.73;4.13;;;;;;;2.50;39.00;100259.06;5020022;28;20022;-80
2022/03/12 01:58:47;;;;;;;7.47;3.92;;;;;;;2.41;39.30;100264.31;5042261;28;20390;-79
2022/03/12 02:01:14;;;;;;;7.93;4.40;;;;;;;2.47;39.07;100259.09;5025454;28;20098;-79
2022/03/12 02:03:40;;;;;;;9.27;4.43;;;;;;;2.49;38.45;100257.31;5042519;28;20475;-80
2022/03/12 02:06:05;;;;;;;7.05;3.88;;;;;;;2.47;38.25;100264.34;5025334;28;20040;-80
2022/03/12 02:08:30;;;;;;;6.60;3.85;;;;;;;2.49;38.47;100259.06;5043073;28;20106;-80
2022/03/12 02:10:57;;;;;;;7.68;4.15;;;;;;;2.49;38.34;100252.06;5042652;28;20445;-78
2022/03/12 02:13:24;;;;;;;6.78;3.67;;;;;;;2.48;38.28;100249.41;5042737;28;20565;-80
2022/03/12 02:15:51;;;;;;;9.77;4.25;;;;;;;2.45;38.32;100251.16;5042657;28;20021;-79
2022/03/12 02:18:16;;;;;;;8.98;3.80;;;;;;;2.39;38.60;100255.53;5023130;28;20056;-79
2022/03/12 02:20:42;;;;;;;5.47;3.80;;;;;;;2.41;38.36;100248.50;5024647;28;20030;-79
2022/03/12 02:23:08;;;;;;;6.53;3.60;;;;;;;2.38;38.30;100245.84;5042932;28;20047;-79
2022/03/12 02:25:34;;;;;;;5.80;3.70;;;;;;;2.43;37.75;100239.72;5044043;28;20036;-79
2022/03/12 02:28:02;;;;;;;7.20;3.55;;;;;;;2.39;38.48;100245.00;5026519;28;20112;-79
2022/03/12 02:30:37;;;;;;;8.57;3.67;;;;;;;2.30;38.81;100241.44;5043487;28;20104;-79
2022/03/12 02:33:03;;;;;;;7.93;3.70;;;;;;;2.25;38.58;100252.84;5043758;28;20053;-80
2022/03/12 02:35:36;;;;;;;5.10;3.35;;;;;;;2.26;38.79;100250.22;5043686;28;20026;-79
2022/03/12 02:38:08;;;;;;;7.93;3.55;;;;;;;2.26;39.26;100250.22;5043138;28;20037;-79
2022/03/12 02:40:35;;;;;;;6.75;3.80;;;;;;;2.18;39.12;100257.22;5043234;28;20423;-78
2022/03/12 02:43:01;;;;;;;6.20;3.80;;;;;;;2.18;38.53;100251.94;5043373;28;20032;-79
2022/03/12 02:45:29;;;;;;;6.45;3.50;;;;;;;2.16;39.05;100237.88;5026396;28;20059;-79
2022/03/12 02:47:55;;;;;;;6.22;3.58;;;;;;;2.20;38.43;100244.91;5025442;28;20091;-80
2022/03/12 02:50:23;;;;;;;7.45;4.00;;;;;;;2.18;39.26;100241.41;5044684;28;20029;-79
2022/03/12 02:52:48;;;;;;;7.10;3.75;;;;;;;2.15;39.43;100239.63;5046636;28;20021;-79
2022/03/12 02:55:19;;;;;;;6.35;3.60;;;;;;;2.12;39.06;100243.13;5045928;28;20474;-79
2022/03/12 02:57:46;;;;;;;5.75;3.42;;;;;;;2.09;39.60;100240.47;5046401;28;20025;-80
2022/03/12 03:00:13;;;;;;;6.70;3.58;;;;;;;2.09;39.55;100250.13;5045838;28;20389;-79
2022/03/12 03:02:40;;;;;;;8.77;3.60;;;;;;;2.09;39.46;100255.41;5047628;28;20048;-79
2022/03/12 03:05:20;;;;;;;7.75;3.45;;;;;;;2.11;38.18;100253.69;5047345;28;20053;-79
2022/03/12 03:07:46;;;;;;;7.32;3.42;;;;;;;2.10;39.36;100259.81;5029222;28;20029;-79
2022/03/12 03:10:29;;;;;;;6.25;3.85;;;;;;;2.08;38.88;100256.28;5046313;28;20022;-79
2022/03/12 03:12:55;;;;;;;8.43;3.35;;;;;;;2.08;38.80;100262.44;5046323;28;20375;-79
2022/03/12 03:15:20;;;;;;;7.55;3.35;;;;;;;2.11;38.95;100264.22;5046390;28;20112;-79
2022/03/12 03:17:47;;;;;;;8.18;4.05;;;;;;;2.08;39.47;100266.84;5028004;28;20091;-79
2022/03/12 03:20:14;;;;;;;7.00;3.40;;;;;;;2.04;39.64;100265.91;5045843;28;20052;-80
2022/03/12 03:22:39;;;;;;;9.30;3.45;;;;;;;2.02;39.47;100265.03;5045988;28;20056;-79
2022/03/12 03:25:05;;;;;;;6.80;3.30;;;;;;;1.98;39.06;100261.53;5046203;28;20041;-80
2022/03/12 03:27:30;;;;;;;5.60;3.45;;;;;;;1.98;39.57;100264.16;5045688;28;20029;-79
2022/03/12 03:29:55;;;;;;;6.97;3.78;;;;;;;2.00;39.09;100274.69;5045675;28;20029;-79
2022/03/12 03:32:21;;;;;;;7.85;3.72;;;;;;;1.99;38.87;100262.38;5046508;28;20533;-78
2022/03/12 03:34:47;;;;;;;7.63;3.55;;;;;;;2.01;38.83;100261.53;5025309;28;20502;-79
2022/03/12 03:37:12;;;;;;;6.68;3.58;;;;;;;2.03;38.97;100264.19;5046786;28;20143;-80
2022/03/12 03:39:39;;;;;;;8.60;3.97;;;;;;;2.06;38.78;100263.31;5046663;28;20029;-79
2022/03/12 03:42:05;;;;;;;9.05;3.78;;;;;;;2.03;39.40;100261.53;5046370;28;20076;-79
2022/03/12 03:44:30;;;;;;;5.95;3.10;;;;;;;2.03;39.35;100258.91;5047133;28;20033;-79
2022/03/12 03:46:56;;;;;;;6.88;3.63;;;;;;;2.06;38.88;100261.53;5029133;28;20107;-79
2022/03/12 03:49:22;;;;;;;6.30;3.40;;;;;;;2.04;38.92;100255.38;5028881;28;20032;-79
2022/03/12 03:51:48;;;;;;;10.82;3.80;;;;;;;2.06;38.47;100263.31;5045831;28;20025;-79
2022/03/12 03:54:15;;;;;;;7.63;3.83;;;;;;;2.02;39.11;100267.69;5045685;28;20025;-79
2022/03/12 03:56:41;;;;;;;8.95;4.00;;;;;;;2.00;38.97;100265.03;5045858;28;20111;-79
2022/03/12 03:59:06;;;;;;;7.40;4.03;;;;;;;1.99;39.32;100267.66;5046324;28;20032;-79
2022/03/12 04:01:32;;;;;;;8.38;3.50;;;;;;;2.00;38.73;100267.69;5045393;28;20025;-79
2022/03/12 04:03:58;;;;;;;8.05;3.60;;;;;;;2.00;38.84;100274.69;5027269;28;20018;-80
2022/03/12 04:06:25;;;;;;;6.20;3.58;;;;;;;1.99;38.80;100275.56;5045311;28;20061;-79
2022/03/12 04:08:51;;;;;;;6.38;3.25;;;;;;;1.97;39.46;100280.81;5044781;28;20052;-79
2022/03/12 04:11:21;;;;;;;6.78;3.50;;;;;;;1.96;39.00;100280.81;5027167;28;20025;-80
2022/03/12 04:13:47;;;;;;;7.85;3.40;;;;;;;1.97;39.42;100279.94;5046946;28;20017;-79
2022/03/12 04:16:14;;;;;;;7.80;3.70;;;;;;;1.97;39.33;100285.22;5045990;28;20089;-79
2022/03/12 04:18:42;;;;;;;6.15;3.53;;;;;;;1.93;39.49;100286.97;5027584;28;20054;-79
2022/03/12 04:21:09;;;;;;;7.63;3.33;;;;;;;1.97;39.32;100295.75;5045435;28;20017;-79
2022/03/12 04:23:35;;;;;;;7.47;3.65;;;;;;;1.96;39.17;100289.59;5045206;28;20135;-79
2022/03/12 04:26:01;;;;;;;6.47;3.20;;;;;;;1.95;39.55;100294.84;5045051;28;20040;-79
2022/03/12 04:28:32;;;;;;;7.53;3.45;;;;;;;1.91;39.39;100293.94;5044100;28;20025;-79
2022/03/12 04:30:59;;;;;;;6.78;3.30;;;;;;;1.93;39.58;100297.50;5044771;28;20036;-79
2022/03/12 04:33:24;;;;;;;9.23;3.58;;;;;;;1.91;39.07;100303.63;5044342;28;20018;-79
2022/03/12 04:35:50;;;;;;;8.07;3.92;;;;;;;1.87;39.71;100306.22;5045109;28;20021;-79
2022/03/12 04:38:16;;;;;;;6.18;3.35;;;;;;;1.91;40.01;100301.00;5044218;28;20093;-79
2022/03/12 04:40:43;;;;;;;9.38;3.58;;;;;;;1.85;39.88;100312.34;5044696;28;20501;-79
2022/03/12 04:43:11;;;;;;;6.47;3.42;;;;;;;1.84;39.54;100306.19;5043027;28;20021;-78
2022/03/12 04:45:37;;;;;;;6.95;3.50;;;;;;;1.78;40.23;100316.69;5025164;28;20029;-79
2022/03/12 04:48:03;;;;;;;6.70;3.53;;;;;;;1.80;39.97;100309.69;5043289;28;20022;-78
2022/03/12 04:50:29;;;;;;;6.82;3.80;;;;;;;1.76;39.90;100310.53;5042310;28;20029;-79
2022/03/12 04:52:58;;;;;;;7.28;3.63;;;;;;;1.68;40.88;100310.47;5043373;28;20021;-80
2022/03/12 04:55:25;;;;;;;6.88;3.20;;;;;;;1.73;40.41;100314.03;5043222;28;20051;-79
2022/03/12 04:57:55;;;;;;;5.80;3.60;;;;;;;1.69;40.73;100306.09;5044826;28;20030;-79
2022/03/12 05:00:27;;;;;;;7.97;3.53;;;;;;;1.64;41.51;100312.22;5026882;28;20025;-79
2022/03/12 05:03:03;;;;;;;6.07;3.17;;;;;;;1.60;41.58;100307.78;5027335;28;20021;-79
2022/03/12 05:05:29;;;;;;;6.90;3.60;;;;;;;1.57;41.71;100302.53;5044363;28;20087;-79
2022/03/12 05:07:57;;;;;;;6.57;3.55;;;;;;;1.60;41.58;100312.19;5026339;28;20029;-79
2022/03/12 05:10:30;;;;;;;7.93;3.75;;;;;;;1.55;41.21;100312.13;5056673;22;20029;-83
2022/03/12 05:13:08;;;;;;;6.88;3.72;;;;;;;1.55;41.86;100317.41;5035849;28;20051;-83
2022/03/12 05:16:03;;;;;;;6.93;3.53;;;;;;;1.53;41.49;100322.66;5037028;28;20028;-84
2022/03/12 05:18:30;;;;;;;9.30;3.83;;;;;;;1.52;42.39;100318.25;5053290;28;20040;-82
2022/03/12 05:20:56;;;;;;;5.85;3.50;;;;;;;1.54;42.06;100321.81;5036357;28;20035;-83
2022/03/12 05:23:23;;;;;;;6.13;3.40;;;;;;;1.53;42.61;100329.66;5054963;28;20377;-83
2022/03/12 05:25:52;;;;;;;8.68;3.50;;;;;;;1.49;43.27;100327.91;5038099;28;20433;-84
2022/03/12 05:28:37;;;;;;;7.45;3.72;;;;;;;1.51;42.50;100318.25;5054998;28;20488;-83
2022/03/12 05:31:04;;;;;;;6.72;3.58;;;;;;;1.50;42.33;100327.91;5037685;28;20021;-84
2022/03/12 05:33:31;;;;;;;6.18;3.60;;;;;;;1.54;42.42;100334.09;5054471;28;20021;-81
2022/03/12 05:35:59;;;;;;;6.93;3.40;;;;;;;1.55;42.58;100330.56;5055152;28;20079;-84
2022/03/12 05:38:31;;;;;;;6.72;3.42;;;;;;;1.59;42.25;100337.63;5037334;28;20116;-83
2022/03/12 05:41:06;;;;;;;6.35;3.92;;;;;;;1.60;42.51;100339.38;5037106;28;20029;-83
2022/03/12 05:43:33;;;;;;;9.93;3.78;;;;;;;1.63;41.79;100346.41;5037514;28;20029;-84
2022/03/12 05:46:07;;;;;;;8.10;3.90;;;;;;;1.67;42.17;100346.47;5036936;28;20028;-85
2022/03/12 05:48:32;;;;;;;8.02;3.60;;;;;;;1.69;42.32;100353.47;5037124;28;20025;-83
2022/03/12 05:51:09;;;;;;;9.90;3.90;;;;;;;1.71;42.68;100346.47;5038686;28;20027;-84
2022/03/12 05:53:38;;;;;;;6.00;3.50;;;;;;;1.70;42.22;100345.59;5035777;28;20021;-84
2022/03/12 05:56:07;;;;;;;7.60;4.05;;;;;;;1.72;42.59;100353.53;5053847;28;20021;-83
2022/03/12 05:58:38;;;;;;;7.30;3.90;;;;;;;1.71;43.28;100351.75;5037808;28;20466;-85
2022/03/12 06:01:07;;;;;;;6.78;3.83;;;;;;;1.73;42.95;100352.63;5055073;28;20446;-84
2022/03/12 06:03:33;;;;;;;7.85;4.13;;;;;;;1.72;43.11;100353.53;5054309;28;20385;-83
2022/03/12 06:06:01;;;;;;;7.18;3.65;;;;;;;1.78;43.07;100354.44;5036698;28;20112;-83
2022/03/12 06:08:28;;;;;;;8.52;3.60;;;;;;;1.85;42.83;100350.13;5036415;28;20024;-83
2022/03/12 06:10:55;;;;;;;9.02;3.72;;;;;;;1.82;42.87;100350.09;5054415;28;20028;-83
2022/03/12 06:13:29;;;;;;;7.80;3.50;;;;;;;1.88;42.91;100347.47;5054605;28;20094;-83
2022/03/12 06:16:00;;;;;;;8.07;3.97;;;;;;;1.94;42.46;100348.38;5036519;28;20174;-83
2022/03/12 06:18:34;;;;;;;7.57;3.63;;;;;;;1.93;43.25;100352.81;5054927;28;20507;-84
2022/03/12 06:21:23;;;;;;;;;;;;;;;;;;;;;
2022/03/12 06:23:51;;;;;;;8.32;3.45;;;;;;;1.95;42.72;100358.97;5057451;28;20116;-83
2022/03/12 06:26:17;;;;;;;6.15;3.45;;;;;;;2.00;42.64;100356.34;5059757;28;20033;-84
2022/03/12 06:28:46;;;;;;;6.93;3.78;;;;;;;2.02;42.47;100351.97;5056985;28;20060;-84
2022/03/12 06:31:13;;;;;;;6.45;3.70;;;;;;;2.08;42.69;100351.13;5058265;28;20017;-83
2022/03/12 06:33:52;;;;;;;;;;;;;;;;;;;;;
2022/03/12 06:36:31;;;;;;;7.72;3.47;;;;;;;2.21;42.35;100358.25;5060279;28;20111;-83
2022/03/12 06:39:16;;;;;;;8.02;3.97;;;;;;;2.26;42.43;100367.91;5060281;28;20104;-84
2022/03/12 06:42:07;;;;;;;8.10;4.13;;;;;;;2.29;42.47;100368.81;5041626;28;20112;-84
2022/03/12 06:44:42;;;;;;;7.25;3.70;;;;;;;2.33;42.82;100377.59;5059847;28;20025;-85
2022/03/12 06:47:10;;;;;;;7.60;3.63;;;;;;;2.34;42.81;100374.13;5041978;28;20035;-84
2022/03/12 06:50:10;;;;;;;7.07;3.90;;;;;;;2.36;42.81;100384.66;5058766;28;20057;-84
2022/03/12 06:52:36;;;;;;;9.18;4.47;;;;;;;2.39;43.33;100389.94;5059672;28;20037;-82
2022/03/12 06:55:02;;;;;;;9.57;4.25;;;;;;;2.41;43.43;100396.09;5041392;28;20087;-83
2022/03/12 06:57:33;;;;;;;9.10;4.00;;;;;;;2.45;43.51;100397.88;5057775;28;20025;-83
2022/03/12 07:00:00;;;;;;;7.93;3.53;;;;;;;2.50;42.99;100396.13;5058561;28;20025;-83
2022/03/12 07:02:26;;;;;;;6.75;3.53;;;;;;;2.56;43.57;100390.91;5068498;28;20021;-83
2022/03/12 07:04:51;;;;;;;9.15;4.22;;;;;;;2.62;43.20;100394.44;5074051;28;20105;-81
2022/03/12 07:07:38;;;;;;;8.73;4.25;;;;;;;2.68;42.67;100405.03;5070592;28;20025;-84
2022/03/12 07:10:06;;;;;;;8.00;4.30;;;;;;;2.76;43.81;100407.69;5046800;28;20084;-84
2022/03/12 07:12:44;;;;;;;9.07;4.10;;;;;;;2.85;43.28;100412.13;5047096;28;20470;-84
2022/03/12 07:15:13;;;;;;;9.48;4.40;;;;;;;2.93;44.01;100409.53;5048083;28;20051;-85
2022/03/12 07:17:41;;;;;;;7.28;4.28;;;;;;;3.01;43.67;100403.41;5066089;28;20025;-86
2022/03/12 07:20:07;;;;;;;8.52;4.53;;;;;;;3.17;43.04;100408.69;5045713;28;20049;-87
2022/03/12 07:22:32;;;;;;;8.80;4.70;;;;;;;3.26;43.12;100412.25;5059537;28;20125;-85
2022/03/12 07:24:58;;;;;;;8.32;4.35;;;;;;;3.38;41.93;100411.38;5058785;28;20039;-86
2022/03/12 07:27:25;;;;;;;6.30;4.13;;;;;;;3.48;41.62;100418.44;5058389;28;20486;-84
2022/03/12 07:29:53;;;;;;;8.32;4.55;;;;;;;3.55;42.46;100408.78;5057522;28;20037;-84
2022/03/12 07:32:20;;;;;;;9.15;4.25;;;;;;;3.64;42.20;100408.78;5058084;28;20095;-85
2022/03/12 07:34:48;;;;;;;9.18;4.97;;;;;;;3.72;42.10;100421.09;5056860;28;20025;-84
2022/03/12 07:37:26;;;;;;;8.93;4.78;;;;;;;3.84;41.97;100410.53;5056994;28;20025;-86
2022/03/12 07:39:52;;;;;;;7.32;4.55;;;;;;;3.93;41.98;100417.59;5056053;28;20111;-84
2022/03/12 07:42:17;;;;;;;9.75;5.15;;;;;;;3.99;41.78;100411.44;5038739;28;20124;-84
2022/03/12 07:44:43;;;;;;;7.80;4.50;;;;;;;4.07;42.97;100414.06;5058141;28;20021;-84
2022/03/12 07:47:08;;;;;;;7.18;4.45;;;;;;;4.11;42.95;100424.63;5058408;28;20047;-84
2022/03/12 07:49:35;;;;;;;8.65;4.70;;;;;;;4.18;44.25;100424.59;5058049;28;20469;-84
2022/03/12 07:52:00;;;;;;;7.68;4.72;;;;;;;4.23;42.25;100422.84;5056984;28;20040;-84
2022/03/12 07:54:26;;;;;;;8.27;4.75;;;;;;;4.33;42.40;100415.81;5041315;28;20020;-86
2022/03/12 07:56:51;;;;;;;9.15;5.03;;;;;;;4.30;42.13;100419.34;5057747;28;20024;-84
2022/03/12 07:59:20;;;;;;;8.55;4.78;;;;;;;4.34;42.38;100414.91;5058492;28;20021;-85
2022/03/12 08:01:46;;;;;;;8.60;5.00;;;;;;;4.38;41.46;100421.06;5040863;28;20029;-83
2022/03/12 08:04:11;;;;;;;8.23;5.07;;;;;;;4.43;41.34;100429.88;5057188;28;20108;-85
2022/03/12 08:06:36;;;;;;;7.90;4.90;;;;;;;4.52;42.60;100427.19;5055785;28;20025;-84
2022/03/12 08:09:10;;;;;;;10.02;5.07;;;;;;;4.69;43.00;100431.56;5057535;28;20040;-86
2022/03/12 08:11:35;;;;;;;;;;;;;;;4.76;42.00;100437.72;5058266;28;20091;-85
2022/03/12 08:14:05;;;;;;;9.88;4.88;;;;;;;4.92;41.96;100439.41;5058296;28;19908;-85
2022/03/12 08:16:35;;;;;;;8.77;4.95;;;;;;;5.03;42.60;100428.78;5037648;28;20029;-84
2022/03/12 08:19:02;;;;;;;11.73;5.10;;;;;;;5.16;41.91;100426.06;5056985;28;20033;-83
2022/03/12 08:21:27;;;;;;;10.77;5.15;;;;;;;5.22;41.79;100436.63;5057380;28;20571;-84
2022/03/12 08:23:55;;;;;;;9.85;5.55;;;;;;;5.31;41.19;100440.13;5056752;28;20021;-85
2022/03/12 08:26:21;;;;;;;8.15;5.13;;;;;;;5.34;42.34;100448.03;5038791;28;20056;-85
2022/03/12 08:28:47;;;;;;;9.52;5.10;;;;;;;5.51;42.28;100444.41;5039122;28;20029;-85
2022/03/12 08:31:13;;;;;;;8.18;4.85;;;;;;;5.62;42.36;100441.69;5056871;28;20155;-85
2022/03/12 08:33:39;;;;;;;10.32;5.40;;;;;;;5.67;41.79;100445.19;5057941;28;20025;-85
2022/03/12 08:36:06;;;;;;;9.85;5.80;;;;;;;5.73;41.87;100442.47;5056192;28;20047;-85
2022/03/12 08:38:34;;;;;;;8.65;5.22;;;;;;;5.89;42.08;100456.50;5057633;28;20397;-85
2022/03/12 08:40:59;;;;;;;8.93;5.30;;;;;;;6.00;42.24;100447.59;5057295;28;20028;-85
2022/03/12 08:43:25;;;;;;;7.45;5.07;;;;;;;5.99;41.14;100452.00;5057534;28;20394;-84
2022/03/12 08:45:50;;;;;;;7.70;5.10;;;;;;;6.06;41.89;100450.16;5040451;28;20017;-84
2022/03/12 08:48:17;;;;;;;9.40;5.30;;;;;;;6.25;41.99;100450.03;5057188;28;20025;-85
2022/03/12 08:50:44;;;;;;;8.98;5.60;;;;;;;6.34;41.59;100449.09;5040268;28;20020;-84
2022/03/12 08:53:10;;;;;;;8.70;5.20;;;;;;;6.43;41.34;100458.72;5055931;28;20025;-84
2022/03/12 08:55:36;;;;;;;9.55;5.70;;;;;;;6.63;42.15;100465.56;5039050;28;20024;-83
2022/03/12 08:58:04;;;;;;;9.18;5.30;;;;;;;6.82;42.25;100461.84;5056817;28;20082;-84
2022/03/12 09:00:30;;;;;;;11.18;5.28;;;;;;;7.08;41.12;100453.56;5041423;28;20060;-84
2022/03/12 09:02:56;;;;;;;13.48;5.68;;;;;;;7.17;41.75;100461.41;5057519;28;20021;-86
2022/03/12 09:05:24;;;;;;;11.73;5.57;;;;;;;7.25;41.40;100453.34;5057933;28;20032;-85
2022/03/12 09:07:52;;;;;;;10.02;5.13;;;;;;;7.39;40.38;100447.84;5057949;28;20021;-86
2022/03/12 09:10:23;;;;;;;8.73;5.07;;;;;;;7.64;40.88;100443.94;5042326;28;20397;-84
2022/03/12 09:12:48;;;;;;;8.05;5.30;;;;;;;7.90;41.09;100435.56;5043160;28;20534;-85
2022/03/12 09:15:24;;;;;;;11.20;5.28;;;;;;;8.15;42.06;100423.59;5043094;28;20474;-85
2022/03/12 09:17:56;;;;;;;8.52;4.93;;;;;;;8.53;40.68;100423.81;5043322;28;20087;-84
2022/03/12 09:20:21;;;;;;;8.35;5.45;;;;;;;8.59;39.81;100429.03;5043472;28;20021;-85
2022/03/12 09:22:47;;;;;;;8.98;5.10;;;;;;;8.65;39.79;100432.50;5061597;28;20052;-86
2022/03/12 09:25:21;;;;;;;9.30;5.47;;;;;;;8.77;39.60;100426.94;5043510;28;20025;-86
2022/03/12 09:27:47;;;;;;;9.90;5.28;;;;;;;8.92;40.04;100430.16;5039523;28;20028;-86
2022/03/12 09:30:18;;;;;;;9.02;4.80;;;;;;;9.00;40.04;100427.34;5037008;28;20024;-83
2022/03/12 09:32:44;;;;;;;8.73;5.47;;;;;;;9.11;39.88;100429.78;5056181;28;20100;-84
2022/03/12 09:35:11;;;;;;;10.13;5.90;;;;;;;9.15;39.39;100426.13;5056783;28;20021;-85
2022/03/12 09:37:37;;;;;;;7.80;5.00;;;;;;;9.13;38.55;100431.50;5057551;28;20498;-84
2022/03/12 09:40:04;;;;;;;8.93;5.15;;;;;;;9.34;38.44;100429.28;5057245;28;20494;-85
2022/03/12 09:42:32;;;;;;;10.85;5.28;;;;;;;9.29;38.57;100423.19;5058483;28;20028;-82
2022/03/12 09:44:59;;;;;;;8.88;5.30;;;;;;;9.54;39.27;100432.38;5040322;28;20024;-85
2022/03/12 09:47:24;;;;;;;8.60;5.25;;;;;;;9.42;38.16;100438.88;5041037;28;20524;-85
2022/03/12 09:49:53;;;;;;;11.80;5.32;;;;;;;9.48;38.48;100434.28;5058945;28;20029;-82
2022/03/12 09:52:20;;;;;;;10.40;5.47;;;;;;;9.55;38.91;100439.47;5058854;28;20028;-84
2022/03/12 09:54:49;;;;;;;8.77;5.50;;;;;;;9.71;38.30;100445.34;5059051;28;20474;-84
2022/03/12 09:57:20;;;;;;;9.52;5.05;;;;;;;9.86;37.71;100444.09;5059411;28;20482;-85
2022/03/12 09:59:46;;;;;;;8.80;5.50;;;;;;;10.09;38.01;100439.97;5043105;28;20400;-83
2022/03/12 10:02:22;;;;;;;10.10;5.15;;;;;;;10.27;37.58;100443.06;5061582;28;20414;-84
2022/03/12 10:04:58;;;;;;;8.35;5.18;;;;;;;10.33;38.22;100442.03;5061715;28;20049;-85
2022/03/12 10:07:27;;;;;;;12.07;6.07;;;;;;;10.24;37.07;100448.47;5057034;28;20032;-84
2022/03/12 10:09:53;;;;;;;10.15;5.47;;;;;;;10.08;36.87;100454.22;5041908;28;20032;-85
2022/03/12 10:12:23;;;;;;;10.60;5.75;;;;;;;10.38;38.16;100456.13;5060645;28;20021;-83
2022/03/12 10:14:49;;;;;;;14.73;5.80;;;;;;;10.48;37.65;100454.09;5058672;28;20501;-85
2022/03/12 10:17:17;;;;;;;9.93;4.90;;;;;;;10.14;38.37;100454.06;5059406;28;20029;-84
2022/03/12 10:19:44;;;;;;;8.10;5.55;;;;;;;9.70;38.80;100455.13;5058374;28;20021;-85
2022/03/12 10:22:20;;;;;;;8.40;5.60;;;;;;;9.88;40.21;100452.91;5061319;28;20111;-85
2022/03/12 10:24:51;;;;;;;9.57;5.43;;;;;;;10.00;39.58;100438.38;5062629;28;20075;-84
2022/03/12 10:27:28;;;;;;;11.40;5.93;;;;;;;10.45;39.73;100440.81;5044938;28;20028;-86
2022/03/12 10:29:53;;;;;;;9.65;5.75;;;;;;;10.59;39.77;100438.66;5043690;28;20025;-85
2022/03/12 10:32:24;;;;;;;7.97;4.97;;;;;;;10.67;37.83;100429.59;5044305;28;20446;-85
2022/03/12 10:35:01;;;;;;;9.75;5.82;;;;;;;10.84;37.74;100427.31;5044476;28;20025;-85
2022/03/12 10:37:34;;;;;;;11.93;5.68;;;;;;;11.40;39.11;100432.78;5062883;28;20478;-85
2022/03/12 10:40:11;;;;;;;9.90;5.35;;;;;;;11.79;37.29;100435.16;5064885;28;20029;-85
2022/03/12 10:43:15;;;;;;;;;;;;;;;;;;;;;
2022/03/12 10:46:03;;;;;;;7.82;5.35;;;;;;;12.23;36.64;100444.44;5064665;28;20104;-84
2022/03/12 10:48:39;;;;;;;9.77;5.88;;;;;;;12.38;36.12;100449.25;5042694;28;20408;-85
2022/03/12 10:51:05;;;;;;;11.30;5.80;;;;;;;12.49;37.35;100453.38;5064024;28;20101;-85
2022/03/12 10:53:36;;;;;;;8.43;5.10;;;;;;;12.18;36.60;100442.81;5045907;28;20085;-85
2022/03/12 10:56:07;;;;;;;10.60;5.45;;;;;;;12.40;37.61;100455.44;5062038;28;20025;-84
2022/03/12 10:58:38;;;;;;;11.35;5.57;;;;;;;12.65;36.68;100445.66;5043530;28;20074;-86
2022/03/12 11:01:03;;;;;;;10.32;5.55;;;;;;;12.65;35.62;100445.66;5044067;28;20028;-85
2022/03/12 11:03:33;;;;;;;8.10;5.32;;;;;;;12.87;35.34;100443.97;5043162;28;20028;-85
2022/03/12 11:06:04;;;;;;;11.50;5.82;;;;;;;12.88;35.73;100451.09;5061807;28;20041;-85
2022/03/12 11:08:38;;;;;;;11.52;5.53;;;;;;;12.50;35.40;100453.28;5062752;28;20024;-84
2022/03/12 11:11:36;;;;;;;9.23;5.95;;;;;;;12.60;35.10;100459.19;5043669;28;20021;-85
2022/03/12 11:14:06;;;;;;;11.23;6.00;;;;;;;12.99;35.73;100466.78;5063528;28;20017;-84
2022/03/12 11:16:35;;;;;;;9.95;5.95;;;;;;;13.13;34.75;100463.56;5062512;28;20424;-84
2022/03/12 11:19:11;;;;;;;9.88;6.18;;;;;;;13.24;36.57;100464.03;5049924;28;20048;-85
2022/03/12 11:21:46;;;;;;;10.25;6.32;;;;;;;13.06;36.34;100463.81;5041428;28;20029;-85
2022/03/12 11:24:20;;;;;;;9.40;6.03;;;;;;;13.25;37.46;100464.91;5063111;28;20029;-85
2022/03/12 11:26:58;;;;;;;10.68;6.00;;;;;;;13.70;36.90;100459.63;5044663;28;20021;-84
2022/03/12 11:29:27;;;;;;;9.20;5.60;;;;;;;13.55;36.80;100466.44;5044585;28;20033;-85
2022/03/12 11:32:02;;;;;;;10.43;6.35;;;;;;;13.60;37.50;100464.50;5061786;28;20021;-85
2022/03/12 11:34:40;;;;;;;10.18;6.18;;;;;;;13.47;36.79;100459.59;5045823;28;20043;-86
2022/03/12 11:37:14;;;;;;;8.75;5.88;;;;;;;13.80;37.37;100460.13;5063820;28;20432;-86
2022/03/12 11:39:45;;;;;;;;;;;;;;;14.08;36.63;100462.53;5062114;28;20051;-85
2022/03/12 11:42:49;;;;;;;10.07;6.38;;;;;;;13.74;36.00;100456.75;5063617;28;19916;-86